Terminal Aerodrome Forecast
Issued by NWS

Home | Current Version | Previous Version | Graphics & Text | Print | Product List | Glossary On
Versions: 1 2 3 4 5 6 7 8 9 10 11 12 13 14 15 16 17 18 19 20 21 22 23 24 25 26 27 28 29 30 31 32 33 34
000
FTUS43 KLOT 251748
TAFDPA
TAF
KDPA 251748Z 2518/2618 27013G20KT P6SM OVC012
     FM252200 26012KT P6SM BKN020
     FM260300 29009KT P6SM SCT025 BKN120
     FM260900 32013KT P6SM SCT040 BKN150
     FM261500 33012G20KT P6SM SCT025 BKN200=

USA.gov is the U.S. government's official web portal to all federal, state and local government web resources and services.